Time;durP1;ratioP1;P1;durP2;ratioP2;P2;SDS_P1;SDS_P2;PMS_P1;PMS_P2;Temp;Humidity;BMP_temperature;BMP_pressure;BME280_temperature;BME280_humidity;BME280_pressure;Samples;Min_cycle;Max_cycle;Signal;HPM_P1;HPM_P2
2021/11/02 00:01:06;;;;;;;9.87;2.30;;;;;;;;;;5088345;28;20458;-78
2021/11/02 00:03:33;;;;;;;9.30;2.03;;;;;;;;;;5087954;28;20514;-79
2021/11/02 00:06:01;;;;;;;8.30;1.70;;;;;;;;;;5094161;28;20883;-78
2021/11/02 00:08:28;;;;;;;6.90;2.37;;;;;;;;;;5096100;28;20453;-79
2021/11/02 00:10:56;;;;;;;5.80;1.80;;;;;;;;;;5102234;28;20844;-78
2021/11/02 00:13:27;;;;;;;7.63;1.93;;;;;;;;;;5082842;28;20459;-78
2021/11/02 00:15:58;;;;;;;7.33;2.00;;;;;;;;;;5099849;28;20943;-78
2021/11/02 00:18:26;;;;;;;7.47;2.10;;;;;;;;;;5098270;28;20943;-78
2021/11/02 00:20:59;;;;;;;5.83;1.50;;;;;;;;;;5088905;28;21024;-78
2021/11/02 00:23:27;;;;;;;8.33;2.20;;;;;;;;;;5091004;28;20552;-79
2021/11/02 00:25:54;;;;;;;6.60;1.60;;;;;;;;;;5102513;28;20905;-79
2021/11/02 00:28:23;;;;;;;5.90;1.50;;;;;;;;;;5077880;28;20455;-80
2021/11/02 00:30:50;;;;;;;8.00;1.87;;;;;;;;;;5091444;28;20452;-78
2021/11/02 00:33:17;;;;;;;6.73;2.27;;;;;;;;;;5089927;28;20454;-78
2021/11/02 00:35:44;;;;;;;7.30;1.83;;;;;;;;;;5099847;28;20508;-79
2021/11/02 00:38:11;;;;;;;9.40;2.23;;;;;;;;;;5094524;28;20541;-77
2021/11/02 00:40:40;;;;;;;7.53;2.00;;;;;;;;;;5097656;28;20455;-79
2021/11/02 00:43:09;;;;;;;8.93;2.10;;;;;;;;;;5096610;28;20465;-79
2021/11/02 00:45:39;;;;;;;9.37;1.87;;;;;;;;;;5096463;28;20997;-79
2021/11/02 00:48:08;;;;;;;7.23;1.90;;;;;;;;;;5086575;28;20543;-79
2021/11/02 00:50:36;;;;;;;9.07;2.27;;;;;;;;;;5103789;28;20463;-79
2021/11/02 00:53:04;;;;;;;9.67;1.80;;;;;;;;;;5077389;28;20498;-78
2021/11/02 00:55:31;;;;;;;7.03;1.87;;;;;;;;;;5089523;28;20473;-78
2021/11/02 00:58:01;;;;;;;5.50;1.30;;;;;;;;;;5093431;28;20454;-78
2021/11/02 01:00:28;;;;;;;8.27;2.17;;;;;;;;;;5089174;28;20454;-78
2021/11/02 01:02:56;;;;;;;9.40;2.20;;;;;;;;;;5084706;28;20451;-78
2021/11/02 01:05:23;;;;;;;9.40;2.10;;;;;;;;;;5088018;28;20493;-79
2021/11/02 01:07:50;;;;;;;7.07;2.30;;;;;;;;;;5076624;28;20455;-79
2021/11/02 01:10:18;;;;;;;7.80;2.00;;;;;;;;;;5077575;28;20451;-79
2021/11/02 01:12:45;;;;;;;6.90;1.77;;;;;;;;;;5089573;28;20454;-78
2021/11/02 01:15:13;;;;;;;7.13;2.17;;;;;;;;;;5084362;28;20481;-78
2021/11/02 01:17:40;;;;;;;12.40;2.10;;;;;;;;;;5092087;28;20464;-78
2021/11/02 01:20:10;;;;;;;7.80;1.77;;;;;;;;;;5087894;28;20953;-78
2021/11/02 01:22:38;;;;;;;11.63;2.07;;;;;;;;;;5091832;28;20464;-78
2021/11/02 01:25:05;;;;;;;9.00;2.03;;;;;;;;;;5090416;28;20475;-79
2021/11/02 01:27:32;;;;;;;8.00;1.93;;;;;;;;;;5078727;28;20464;-78
2021/11/02 01:30:00;;;;;;;6.37;2.40;;;;;;;;;;5088173;28;20490;-79
2021/11/02 01:32:27;;;;;;;8.10;1.93;;;;;;;;;;5089385;28;20480;-78
2021/11/02 01:34:54;;;;;;;6.67;2.10;;;;;;;;;;5089099;28;20474;-78
2021/11/02 01:37:22;;;;;;;9.20;1.90;;;;;;;;;;5088113;28;20450;-78
2021/11/02 01:39:50;;;;;;;10.73;3.03;;;;;;;;;;5076304;28;20523;-79
2021/11/02 01:42:18;;;;;;;5.90;1.73;;;;;;;;;;5096097;28;20451;-78
2021/11/02 01:44:45;;;;;;;11.40;2.37;;;;;;;;;;5094782;28;20486;-78
2021/11/02 01:47:13;;;;;;;6.10;1.50;;;;;;;;;;5100915;28;20485;-79
2021/11/02 01:49:40;;;;;;;12.13;2.23;;;;;;;;;;5082092;28;20456;-79
2021/11/02 01:52:07;;;;;;;6.30;1.80;;;;;;;;;;5096530;28;20493;-78
2021/11/02 01:54:36;;;;;;;6.70;2.00;;;;;;;;;;5105250;28;21023;-78
2021/11/02 01:57:03;;;;;;;9.40;2.00;;;;;;;;;;5100109;28;20442;-79
2021/11/02 01:59:33;;;;;;;9.30;1.53;;;;;;;;;;5102207;28;21029;-79
2021/11/02 02:02:05;;;;;;;7.30;1.83;;;;;;;;;;5088907;28;20458;-79
2021/11/02 02:04:38;;;;;;;7.00;1.57;;;;;;;;;;5099502;28;20881;-78
2021/11/02 02:07:16;;;;;;;4.83;1.50;;;;;;;;;;5090418;28;20488;-79
2021/11/02 02:09:46;;;;;;;5.57;1.83;;;;;;;;;;5080480;28;20472;-78
2021/11/02 02:12:21;;;;;;;6.87;1.47;;;;;;;;;;5093830;28;20452;-79
2021/11/02 02:14:51;;;;;;;10.30;1.57;;;;;;;;;;5088843;28;20566;-79
2021/11/02 02:17:21;;;;;;;6.13;2.00;;;;;;;;;;5093681;28;20441;-78
2021/11/02 02:19:51;;;;;;;6.80;1.80;;;;;;;;;;5106737;28;20517;-78
2021/11/02 02:22:34;;;;;;;6.33;1.80;;;;;;;;;;5089324;28;20447;-78
2021/11/02 02:25:19;;;;;;;6.53;1.70;;;;;;;;;;5089951;28;20482;-78
2021/11/02 02:27:58;;;;;;;6.57;1.53;;;;;;;;;;5099828;28;20455;-78
2021/11/02 02:30:26;;;;;;;8.30;2.00;;;;;;;;;;5092929;28;20450;-78
2021/11/02 02:32:55;;;;;;;7.10;1.80;;;;;;;;;;5103944;28;20536;-78
2021/11/02 02:35:23;;;;;;;5.47;1.50;;;;;;;;;;5096055;28;20467;-78
2021/11/02 02:37:51;;;;;;;7.90;1.70;;;;;;;;;;5082780;28;20451;-79
2021/11/02 02:40:19;;;;;;;9.27;1.33;;;;;;;;;;5084377;28;20445;-78
2021/11/02 02:42:48;;;;;;;10.33;1.60;;;;;;;;;;5085856;28;20915;-79
2021/11/02 02:45:17;;;;;;;9.70;1.90;;;;;;;;;;5093357;28;20484;-78
2021/11/02 02:47:45;;;;;;;5.87;2.00;;;;;;;;;;5100803;28;20457;-79
2021/11/02 02:50:12;;;;;;;6.60;1.53;;;;;;;;;;5083050;28;20959;-78
2021/11/02 02:52:41;;;;;;;4.67;1.20;;;;;;;;;;5093421;28;20467;-79
2021/11/02 02:55:09;;;;;;;5.50;1.50;;;;;;;;;;5083776;28;20483;-78
2021/11/02 02:57:37;;;;;;;6.53;1.43;;;;;;;;;;5109072;28;20511;-78
2021/11/02 03:00:05;;;;;;;5.80;1.43;;;;;;;;;;5101094;28;20457;-78
2021/11/02 03:02:34;;;;;;;5.93;1.40;;;;;;;;;;5087453;28;20548;-77
2021/11/02 03:05:04;;;;;;;12.33;1.87;;;;;;;;;;5086494;28;20473;-79
2021/11/02 03:07:31;;;;;;;8.17;2.00;;;;;;;;;;5089162;28;20486;-77
2021/11/02 03:09:59;;;;;;;7.23;1.70;;;;;;;;;;5095878;28;20549;-78
2021/11/02 03:12:27;;;;;;;6.43;2.33;;;;;;;;;;5084115;28;20457;-78
2021/11/02 03:15:08;;;;;;;6.27;1.67;;;;;;;;;;5106856;28;20576;-78
2021/11/02 03:17:44;;;;;;;6.27;1.70;;;;;;;;;;5107421;28;20478;-78
2021/11/02 03:56:35;;;;;;;7.63;1.90;;;;;;;;;;5092284;28;20480;-78
2021/11/02 04:02:02;;;;;;;9.63;2.23;;;;;;;;;;5100349;28;20495;-79
2021/11/02 04:24:17;;;;;;;7.00;1.87;;;;;;;;;;5108474;28;20479;-79
2021/11/02 04:35:24;;;;;;;5.90;1.30;;;;;;;;;;5096315;28;21002;-80
2021/11/02 05:08:59;;;;;;;6.53;1.70;;;;;;;;;;5099582;28;20985;-81
2021/11/02 05:48:00;;;;;;;10.33;2.10;;;;;;;;;;5129154;28;20428;-81
2021/11/02 05:50:54;;;;;;;7.93;2.00;;;;;;;;;;5133307;28;20454;-81
2021/11/02 05:56:17;;;;;;;5.50;1.80;;;;;;;;;;5123424;28;20859;-81
2021/11/02 05:58:48;;;;;;;7.30;2.10;;;;;;;;;;5133349;27;20453;-81
2021/11/02 06:01:26;;;;;;;6.67;2.00;;;;;;;;;;5132514;27;20573;-81
2021/11/02 06:03:57;;;;;;;5.60;1.97;;;;;;;;;;5130419;27;20473;-81
2021/11/02 06:06:33;;;;;;;6.63;2.00;;;;;;;;;;5137401;22;20528;-81
2021/11/02 06:09:15;;;;;;;6.60;1.97;;;;;;;;;;5153872;27;21053;-82
2021/11/02 06:23:27;;;;;;;9.07;2.13;;;;;;;;;;5134240;27;20438;-81
2021/11/02 06:28:48;;;;;;;6.77;2.20;;;;;;;;;;5133816;27;20427;-81
2021/11/02 06:31:18;;;;;;;7.00;2.40;;;;;;;;;;5143609;27;20969;-83
2021/11/02 06:33:53;;;;;;;6.10;2.17;;;;;;;;;;5141717;27;20486;-82
2021/11/02 06:36:39;;;;;;;6.73;1.93;;;;;;;;;;5129478;27;20460;-82
2021/11/02 06:39:34;;;;;;;6.30;1.90;;;;;;;;;;5120607;28;20463;-83
2021/11/02 06:48:02;;;;;;;6.60;2.20;;;;;;;;;;5129203;27;20468;-81
2021/11/02 06:59:14;;;;;;;6.10;1.93;;;;;;;;;;5057226;28;21003;-82
2021/11/02 07:16:02;;;;;;;7.60;1.90;;;;;;;;;;5129651;27;20435;-83
2021/11/02 07:18:32;;;;;;;5.50;2.23;;;;;;;;;;5129632;27;20972;-83
2021/11/02 07:21:05;;;;;;;5.43;2.00;;;;;;;;;;5135646;27;20483;-84
2021/11/02 07:23:43;;;;;;;6.23;2.07;;;;;;;;;;5127236;27;20505;-85
2021/11/02 07:26:22;;;;;;;5.87;2.13;;;;;;;;;;5130586;27;20955;-84
2021/11/02 08:47:06;;;;;;;9.43;1.57;;;;;;;;;;5135065;27;20542;-83
2021/11/02 08:49:36;;;;;;;8.93;1.20;;;;;;;;;;5127401;27;20936;-83
2021/11/02 08:52:04;;;;;;;7.10;1.70;;;;;;;;;;5140877;27;20419;-84
2021/11/02 08:54:31;;;;;;;6.10;1.10;;;;;;;;;;5137469;27;20529;-84
2021/11/02 08:56:59;;;;;;;9.73;1.43;;;;;;;;;;5146412;27;20523;-84
2021/11/02 08:59:27;;;;;;;6.40;1.30;;;;;;;;;;5147469;27;20961;-85
2021/11/02 09:01:57;;;;;;;8.70;1.73;;;;;;;;;;5150736;27;20491;-85
2021/11/02 09:04:26;;;;;;;7.50;1.83;;;;;;;;;;5146833;27;20444;-84
2021/11/02 09:06:53;;;;;;;6.23;1.10;;;;;;;;;;5151981;27;20464;-83
2021/11/02 09:09:20;;;;;;;7.70;1.20;;;;;;;;;;5147778;27;20451;-86
2021/11/02 09:11:49;;;;;;;5.77;1.40;;;;;;;;;;5147624;27;20447;-85
2021/11/02 09:14:18;;;;;;;9.63;1.70;;;;;;;;;;5153062;27;20449;-83
2021/11/02 09:16:49;;;;;;;7.10;1.20;;;;;;;;;;5137832;27;20873;-83
2021/11/02 09:19:16;;;;;;;8.53;1.63;;;;;;;;;;5138502;27;20453;-85
2021/11/02 09:21:44;;;;;;;4.90;1.00;;;;;;;;;;5138455;28;20482;-83
2021/11/02 09:24:11;;;;;;;6.10;1.00;;;;;;;;;;5137051;28;20454;-83
2021/11/02 09:26:41;;;;;;;7.73;1.47;;;;;;;;;;5104429;27;20486;-83
2021/11/02 09:29:10;;;;;;;6.90;1.50;;;;;;;;;;5095138;27;20463;-85
2021/11/02 09:31:38;;;;;;;5.43;1.73;;;;;;;;;;5091850;27;20452;-85
2021/11/02 09:34:06;;;;;;;6.80;1.30;;;;;;;;;;5127857;27;20462;-85
2021/11/02 09:36:40;;;;;;;6.50;1.27;;;;;;;;;;5130182;28;21014;-85
2021/11/02 09:39:08;;;;;;;9.53;1.60;;;;;;;;;;5132415;27;20450;-85
2021/11/02 09:41:54;;;;;;;6.27;1.30;;;;;;;;;;5123362;27;20484;-86
2021/11/02 09:44:38;;;;;;;6.50;1.30;;;;;;;;;;5133138;27;20441;-84
2021/11/02 09:47:14;;;;;;;7.43;1.20;;;;;;;;;;5128802;28;20500;-86
2021/11/02 09:49:59;;;;;;;10.10;1.70;;;;;;;;;;5139279;27;20512;-85
2021/11/02 09:52:44;;;;;;;5.50;1.23;;;;;;;;;;5121843;28;20523;-85
2021/11/02 09:55:28;;;;;;;5.20;1.17;;;;;;;;;;5144069;27;20444;-85
2021/11/02 09:58:13;;;;;;;5.87;1.10;;;;;;;;;;5132352;28;20477;-85
2021/11/02 10:00:55;;;;;;;7.63;1.23;;;;;;;;;;5128725;28;20451;-85
2021/11/02 10:03:48;;;;;;;5.90;1.00;;;;;;;;;;5137116;27;20550;-85
2021/11/02 10:06:29;;;;;;;6.23;1.10;;;;;;;;;;5124610;27;20482;-86
2021/11/02 10:09:03;;;;;;;6.50;1.60;;;;;;;;;;5140112;27;20948;-82
2021/11/02 10:11:38;;;;;;;6.17;1.10;;;;;;;;;;5142819;27;20435;-83
2021/11/02 10:14:13;;;;;;;7.10;1.20;;;;;;;;;;5149060;27;20438;-83
2021/11/02 10:16:49;;;;;;;5.87;1.17;;;;;;;;;;5147583;27;20503;-83
2021/11/02 10:19:31;;;;;;;7.10;1.30;;;;;;;;;;5139441;27;20455;-84
2021/11/02 10:22:25;;;;;;;11.17;1.60;;;;;;;;;;5127267;27;20490;-83
2021/11/02 10:25:04;;;;;;;5.60;1.00;;;;;;;;;;5139422;27;20953;-83
2021/11/02 10:27:41;;;;;;;8.23;1.63;;;;;;;;;;5139274;27;20467;-83
2021/11/02 10:30:28;;;;;;;8.40;1.60;;;;;;;;;;5130964;27;20457;-81
2021/11/02 10:32:58;;;;;;;7.40;1.30;;;;;;;;;;5143481;27;20444;-82
2021/11/02 10:35:31;;;;;;;6.60;1.10;;;;;;;;;;5141623;27;20955;-83
2021/11/02 10:38:02;;;;;;;7.37;1.00;;;;;;;;;;5134360;27;20458;-83
2021/11/02 10:40:34;;;;;;;8.53;1.30;;;;;;;;;;5131904;27;20449;-83
2021/11/02 10:43:22;;;;;;;9.10;1.17;;;;;;;;;;5141898;27;21014;-83
2021/11/02 10:45:55;;;;;;;7.83;1.13;;;;;;;;;;5141866;27;20449;-84
2021/11/02 10:48:25;;;;;;;6.27;1.03;;;;;;;;;;5128405;27;20472;-83
2021/11/02 10:50:55;;;;;;;6.77;1.00;;;;;;;;;;5135347;27;20456;-82
2021/11/02 10:53:28;;;;;;;6.87;1.40;;;;;;;;;;5135422;27;20452;-83
2021/11/02 10:55:58;;;;;;;7.50;1.70;;;;;;;;;;5137267;27;20551;-83
2021/11/02 10:58:36;;;;;;;7.83;1.73;;;;;;;;;;5131897;27;20564;-84
2021/11/02 11:01:10;;;;;;;6.97;1.10;;;;;;;;;;5126252;27;20456;-83
2021/11/02 11:03:38;;;;;;;6.00;1.00;;;;;;;;;;5143263;27;20484;-83
2021/11/02 11:06:06;;;;;;;5.90;0.90;;;;;;;;;;5135243;27;20451;-83
2021/11/02 11:08:35;;;;;;;6.30;1.13;;;;;;;;;;5132167;27;20448;-84
2021/11/02 11:11:03;;;;;;;6.87;1.03;;;;;;;;;;5131498;27;20459;-84
2021/11/02 11:13:30;;;;;;;6.00;1.10;;;;;;;;;;5135330;27;20445;-83
2021/11/02 11:16:02;;;;;;;8.43;1.27;;;;;;;;;;5137027;27;20454;-84
2021/11/02 11:18:34;;;;;;;5.87;1.07;;;;;;;;;;5134616;27;20533;-84
2021/11/02 11:21:02;;;;;;;6.03;1.10;;;;;;;;;;5133057;27;20440;-82
2021/11/02 11:23:30;;;;;;;5.57;0.87;;;;;;;;;;5132987;27;21003;-83
2021/11/02 11:26:00;;;;;;;6.50;0.93;;;;;;;;;;5123203;27;20555;-84
2021/11/02 11:28:27;;;;;;;5.43;0.80;;;;;;;;;;5119320;28;20503;-82
2021/11/02 11:30:56;;;;;;;5.70;0.80;;;;;;;;;;5118553;28;20458;-83
2021/11/02 11:33:25;;;;;;;5.70;0.83;;;;;;;;;;5127859;27;20445;-83
2021/11/02 11:35:57;;;;;;;7.30;0.90;;;;;;;;;;5132929;27;20451;-83
2021/11/02 11:38:26;;;;;;;6.20;0.83;;;;;;;;;;5135171;27;20471;-83
2021/11/02 11:40:55;;;;;;;5.77;0.90;;;;;;;;;;5134499;27;20959;-83
2021/11/02 11:43:26;;;;;;;6.37;1.00;;;;;;;;;;5133835;27;20485;-83
2021/11/02 11:45:54;;;;;;;5.63;0.80;;;;;;;;;;5129030;27;20460;-83
2021/11/02 11:48:24;;;;;;;6.80;0.90;;;;;;;;;;5130368;27;20461;-84
2021/11/02 11:50:51;;;;;;;5.43;0.83;;;;;;;;;;5134474;27;20539;-83
2021/11/02 11:53:21;;;;;;;5.50;1.00;;;;;;;;;;5141199;27;20435;-83
2021/11/02 11:55:49;;;;;;;6.20;1.20;;;;;;;;;;5149381;27;20444;-83
2021/11/02 11:58:17;;;;;;;6.27;1.03;;;;;;;;;;5139803;27;20464;-83
2021/11/02 12:00:45;;;;;;;5.50;0.80;;;;;;;;;;5135952;27;20479;-83
2021/11/02 12:03:17;;;;;;;6.00;0.90;;;;;;;;;;5149601;27;20480;-83
2021/11/02 12:05:45;;;;;;;6.70;1.00;;;;;;;;;;5139581;27;20481;-83
2021/11/02 12:08:16;;;;;;;5.77;0.83;;;;;;;;;;5134958;27;20877;-84
2021/11/02 12:10:45;;;;;;;6.57;0.87;;;;;;;;;;5135185;27;20461;-84
2021/11/02 12:13:13;;;;;;;5.80;0.90;;;;;;;;;;5126012;27;20447;-83
2021/11/02 12:15:59;;;;;;;6.60;0.97;;;;;;;;;;5131031;27;20455;-83
2021/11/02 12:18:30;;;;;;;6.77;1.00;;;;;;;;;;5126862;27;20896;-84
2021/11/02 12:20:58;;;;;;;6.10;1.07;;;;;;;;;;5129618;27;20453;-84
2021/11/02 12:23:37;;;;;;;6.00;0.90;;;;;;;;;;5133974;27;20590;-84
2021/11/02 12:28:52;;;;;;;7.20;0.90;;;;;;;;;;5124186;27;20832;-86
2021/11/02 12:31:20;;;;;;;6.87;1.37;;;;;;;;;;5132758;27;20543;-85
2021/11/02 12:33:48;;;;;;;7.10;1.10;;;;;;;;;;5126674;27;20938;-84
2021/11/02 12:36:19;;;;;;;6.40;1.10;;;;;;;;;;5130000;27;20454;-83
2021/11/02 12:38:46;;;;;;;7.83;1.10;;;;;;;;;;5129445;27;20846;-84
2021/11/02 12:41:21;;;;;;;7.00;1.03;;;;;;;;;;5129955;27;20500;-83
2021/11/02 12:44:02;;;;;;;7.40;1.47;;;;;;;;;;5134946;27;20491;-83
2021/11/02 12:46:30;;;;;;;6.90;0.90;;;;;;;;;;5139284;27;20455;-84
2021/11/02 12:49:00;;;;;;;6.10;0.90;;;;;;;;;;5128202;27;20463;-84
2021/11/02 12:51:31;;;;;;;7.07;0.90;;;;;;;;;;5124779;27;20454;-85
2021/11/02 12:54:01;;;;;;;7.20;0.90;;;;;;;;;;5117960;27;20460;-83
2021/11/02 12:56:31;;;;;;;5.70;0.73;;;;;;;;;;5121738;27;20490;-83
2021/11/02 12:59:03;;;;;;;6.17;0.90;;;;;;;;;;5126970;27;20459;-83
2021/11/02 13:01:35;;;;;;;6.83;0.80;;;;;;;;;;5132772;27;20443;-85
2021/11/02 13:04:04;;;;;;;6.80;0.80;;;;;;;;;;5124792;27;20480;-85
2021/11/02 13:06:39;;;;;;;6.17;0.80;;;;;;;;;;5123604;27;20486;-84
2021/11/02 13:09:06;;;;;;;6.33;0.80;;;;;;;;;;5122972;27;20517;-83
2021/11/02 13:11:35;;;;;;;6.00;0.90;;;;;;;;;;5122220;27;20908;-83
2021/11/02 13:14:08;;;;;;;5.80;0.80;;;;;;;;;;5131190;27;20444;-84
2021/11/02 13:16:50;;;;;;;6.47;0.93;;;;;;;;;;5124085;27;21062;-83
2021/11/02 13:19:17;;;;;;;5.70;0.90;;;;;;;;;;5125462;27;20446;-84
2021/11/02 13:21:45;;;;;;;9.60;0.70;;;;;;;;;;5127405;28;20566;-83
2021/11/02 13:24:16;;;;;;;7.17;1.13;;;;;;;;;;5125401;28;20918;-84
2021/11/02 13:26:45;;;;;;;6.03;0.80;;;;;;;;;;5133791;28;20473;-83
2021/11/02 13:29:13;;;;;;;5.67;0.80;;;;;;;;;;5135580;27;20448;-83
2021/11/02 13:31:41;;;;;;;6.10;0.80;;;;;;;;;;5129218;27;20452;-83
2021/11/02 13:34:09;;;;;;;5.87;0.80;;;;;;;;;;5134204;28;20444;-84
2021/11/02 13:36:36;;;;;;;5.60;1.20;;;;;;;;;;5134056;28;20471;-83
2021/11/02 13:39:04;;;;;;;5.40;0.90;;;;;;;;;;5122877;28;20466;-84
2021/11/02 13:41:32;;;;;;;6.97;1.00;;;;;;;;;;5123678;28;20987;-83
2021/11/02 13:44:03;;;;;;;6.77;1.10;;;;;;;;;;5131794;27;20580;-83
2021/11/02 13:46:31;;;;;;;5.50;0.80;;;;;;;;;;5129346;27;21036;-84
2021/11/02 13:48:59;;;;;;;6.10;1.20;;;;;;;;;;5129644;27;20476;-84
2021/11/02 13:51:26;;;;;;;5.80;0.80;;;;;;;;;;5130976;27;20472;-83
2021/11/02 13:53:54;;;;;;;9.13;1.07;;;;;;;;;;5137293;27;20483;-84
2021/11/02 13:56:22;;;;;;;5.70;0.90;;;;;;;;;;5133164;27;20454;-84
2021/11/02 13:58:50;;;;;;;6.10;1.10;;;;;;;;;;5131640;27;20459;-84
2021/11/02 14:01:22;;;;;;;5.40;0.80;;;;;;;;;;5128810;27;20452;-83
2021/11/02 14:03:52;;;;;;;5.70;0.90;;;;;;;;;;5135807;27;20495;-84
2021/11/02 14:06:20;;;;;;;5.50;0.80;;;;;;;;;;5141052;27;20464;-84
2021/11/02 14:08:48;;;;;;;7.20;1.03;;;;;;;;;;5130998;27;20449;-84
2021/11/02 14:11:19;;;;;;;6.37;1.00;;;;;;;;;;5131551;27;20447;-84
2021/11/02 14:13:47;;;;;;;5.70;0.90;;;;;;;;;;5130392;27;21152;-84
2021/11/02 14:16:15;;;;;;;8.03;0.93;;;;;;;;;;5135965;27;20543;-84
2021/11/02 14:18:43;;;;;;;6.30;1.20;;;;;;;;;;5123886;27;20895;-83
2021/11/02 14:21:11;;;;;;;7.93;1.10;;;;;;;;;;5132543;27;20540;-84
2021/11/02 14:23:40;;;;;;;6.50;1.20;;;;;;;;;;5125167;27;20482;-84
2021/11/02 14:26:19;;;;;;;6.73;1.00;;;;;;;;;;5129653;27;20459;-84
2021/11/02 14:28:48;;;;;;;6.57;1.10;;;;;;;;;;5136790;27;20450;-84
2021/11/02 14:31:29;;;;;;;5.70;0.90;;;;;;;;;;5130714;27;20457;-84
2021/11/02 14:33:58;;;;;;;6.30;1.10;;;;;;;;;;5138719;27;20525;-84
2021/11/02 14:36:38;;;;;;;6.70;1.00;;;;;;;;;;5137609;27;20458;-84
2021/11/02 14:39:05;;;;;;;9.20;1.23;;;;;;;;;;5135991;27;20466;-84
2021/11/02 14:41:34;;;;;;;6.60;1.20;;;;;;;;;;5129297;27;20439;-84
2021/11/02 14:44:23;;;;;;;6.20;1.03;;;;;;;;;;5133739;27;20474;-83
2021/11/02 14:46:51;;;;;;;6.20;1.13;;;;;;;;;;5137033;27;20468;-83
2021/11/02 14:49:35;;;;;;;5.93;1.00;;;;;;;;;;5137131;27;20464;-84
2021/11/02 14:52:05;;;;;;;5.67;0.97;;;;;;;;;;5135365;27;20838;-84
2021/11/02 14:54:36;;;;;;;5.80;0.90;;;;;;;;;;5137336;27;20448;-83
2021/11/02 14:57:18;;;;;;;7.43;1.00;;;;;;;;;;5129990;27;20474;-83
2021/11/02 14:59:48;;;;;;;5.90;1.00;;;;;;;;;;5132697;27;20457;-83
2021/11/02 15:02:16;;;;;;;6.17;1.00;;;;;;;;;;5131212;27;20797;-83
2021/11/02 15:04:44;;;;;;;7.20;1.43;;;;;;;;;;5134986;27;20487;-84
2021/11/02 15:07:12;;;;;;;6.17;1.20;;;;;;;;;;5134637;27;20488;-84
2021/11/02 15:09:40;;;;;;;6.30;1.27;;;;;;;;;;5127697;27;20445;-83
2021/11/02 15:12:08;;;;;;;7.40;1.60;;;;;;;;;;5131743;27;20455;-85
2021/11/02 15:14:36;;;;;;;7.20;1.40;;;;;;;;;;5135150;27;20909;-84
2021/11/02 15:17:04;;;;;;;6.17;0.97;;;;;;;;;;5139381;27;20465;-84
2021/11/02 15:19:33;;;;;;;6.73;1.20;;;;;;;;;;5139262;27;20440;-84
2021/11/02 15:22:01;;;;;;;6.30;1.10;;;;;;;;;;5139722;27;20444;-84
2021/11/02 15:24:33;;;;;;;6.10;1.40;;;;;;;;;;5140602;27;20586;-84
2021/11/02 15:27:03;;;;;;;5.90;1.20;;;;;;;;;;5135939;27;20536;-85
2021/11/02 15:29:31;;;;;;;7.00;1.27;;;;;;;;;;5142061;27;20490;-85
2021/11/02 15:32:03;;;;;;;6.17;1.00;;;;;;;;;;5131864;27;20441;-84
2021/11/02 15:34:43;;;;;;;5.70;0.90;;;;;;;;;;5132438;27;20455;-84
2021/11/02 15:37:11;;;;;;;9.63;1.37;;;;;;;;;;5135421;27;20460;-84
2021/11/02 15:39:40;;;;;;;6.40;1.30;;;;;;;;;;5133959;27;21043;-83
2021/11/02 15:42:21;;;;;;;5.63;1.10;;;;;;;;;;5134954;27;20467;-84
2021/11/02 15:44:50;;;;;;;6.83;1.40;;;;;;;;;;5127260;27;20488;-82
2021/11/02 15:47:17;;;;;;;6.50;1.70;;;;;;;;;;5150473;27;20954;-83
2021/11/02 15:49:45;;;;;;;7.00;1.23;;;;;;;;;;5153521;27;20444;-83
2021/11/02 15:52:12;;;;;;;5.90;1.00;;;;;;;;;;5149250;27;20471;-83
2021/11/02 15:54:47;;;;;;;7.60;1.00;;;;;;;;;;5139174;27;20447;-83
2021/11/02 15:57:14;;;;;;;7.93;1.23;;;;;;;;;;5136721;27;20554;-84
2021/11/02 15:59:41;;;;;;;5.77;1.10;;;;;;;;;;5139554;22;20497;-78
2021/11/02 16:02:09;;;;;;;6.00;1.40;;;;;;;;;;5075086;28;20539;-81
2021/11/02 16:04:36;;;;;;;4.90;0.90;;;;;;;;;;5071547;28;20490;-78
2021/11/02 16:07:04;;;;;;;5.90;1.20;;;;;;;;;;5069107;28;20557;-80
2021/11/02 16:09:58;;;;;;;7.20;1.00;;;;;;;;;;5068229;28;20477;-80
2021/11/02 16:12:30;;;;;;;5.90;1.40;;;;;;;;;;5018511;28;20470;-81
2021/11/02 16:15:00;;;;;;;5.80;1.43;;;;;;;;;;5075801;28;20551;-81
2021/11/02 16:17:28;;;;;;;5.23;0.90;;;;;;;;;;5066286;28;20460;-80
2021/11/02 16:19:56;;;;;;;5.23;1.10;;;;;;;;;;5064658;28;20470;-80
2021/11/02 16:22:24;;;;;;;5.87;1.63;;;;;;;;;;5065984;28;20451;-80
2021/11/02 16:25:11;;;;;;;5.50;1.03;;;;;;;;;;5064461;28;20869;-81
2021/11/02 16:27:53;;;;;;;6.83;1.87;;;;;;;;;;5067043;28;20986;-80
2021/11/02 16:30:22;;;;;;;4.73;1.10;;;;;;;;;;5065766;28;20472;-80
2021/11/02 16:32:51;;;;;;;5.03;1.00;;;;;;;;;;5070362;28;20471;-80
2021/11/02 16:35:35;;;;;;;6.30;1.40;;;;;;;;;;5079702;28;20538;-80
2021/11/02 16:38:23;;;;;;;5.10;1.20;;;;;;;;;;5079645;28;20810;-80
2021/11/02 16:40:51;;;;;;;6.50;1.20;;;;;;;;;;5083923;28;20537;-80
2021/11/02 16:43:25;;;;;;;4.90;1.27;;;;;;;;;;5062261;28;20461;-81
2021/11/02 16:45:52;;;;;;;6.60;1.50;;;;;;;;;;5076158;28;20452;-81
2021/11/02 16:48:19;;;;;;;6.93;1.53;;;;;;;;;;5072482;28;20445;-79
2021/11/02 16:50:52;;;;;;;4.70;1.30;;;;;;;;;;5068627;28;20475;-80
2021/11/02 16:53:26;;;;;;;6.47;1.20;;;;;;;;;;5082300;28;20438;-80
2021/11/02 16:55:54;;;;;;;5.00;1.40;;;;;;;;;;5072620;28;20889;-81
2021/11/02 16:58:30;;;;;;;9.60;1.90;;;;;;;;;;5071780;28;20473;-80
2021/11/02 17:01:16;;;;;;;7.60;1.67;;;;;;;;;;5078450;28;20457;-80
2021/11/02 17:03:44;;;;;;;4.60;1.47;;;;;;;;;;5078316;28;20487;-80
2021/11/02 17:06:12;;;;;;;5.10;1.90;;;;;;;;;;5074068;28;20464;-80
2021/11/02 17:08:47;;;;;;;8.27;2.30;;;;;;;;;;5065754;28;20461;-81
2021/11/02 17:11:19;;;;;;;7.47;2.50;;;;;;;;;;5063978;28;20449;-80
2021/11/02 17:13:49;;;;;;;5.53;1.70;;;;;;;;;;5080021;28;20459;-80
2021/11/02 17:16:18;;;;;;;5.60;1.93;;;;;;;;;;5081106;28;20456;-81
2021/11/02 17:18:46;;;;;;;6.07;2.00;;;;;;;;;;5076788;28;20455;-81
2021/11/02 17:21:15;;;;;;;7.33;1.90;;;;;;;;;;5080023;28;20545;-79
2021/11/02 17:23:43;;;;;;;5.90;2.30;;;;;;;;;;5082233;28;20547;-80
2021/11/02 17:26:11;;;;;;;5.40;2.20;;;;;;;;;;5074798;28;20457;-80
2021/11/02 17:28:38;;;;;;;5.87;2.50;;;;;;;;;;5065960;28;20521;-80
2021/11/02 17:31:07;;;;;;;7.53;2.93;;;;;;;;;;5077279;28;20449;-81
2021/11/02 17:33:35;;;;;;;7.67;2.60;;;;;;;;;;5067429;28;20521;-80
2021/11/02 17:36:03;;;;;;;5.00;1.90;;;;;;;;;;5080756;28;20517;-80
2021/11/02 17:38:30;;;;;;;7.20;2.63;;;;;;;;;;5074289;28;20521;-80
2021/11/02 17:40:57;;;;;;;6.67;2.50;;;;;;;;;;5067172;28;20758;-81
2021/11/02 17:43:25;;;;;;;7.50;3.13;;;;;;;;;;5084176;28;20477;-80
2021/11/02 17:45:52;;;;;;;6.63;2.83;;;;;;;;;;5078298;28;21007;-81
2021/11/02 17:48:21;;;;;;;8.63;2.70;;;;;;;;;;5076014;28;20460;-80
2021/11/02 17:50:48;;;;;;;6.57;2.50;;;;;;;;;;5066996;28;20579;-81
2021/11/02 17:53:16;;;;;;;8.33;3.20;;;;;;;;;;5078140;28;20537;-79
2021/11/02 17:55:43;;;;;;;94.10;17.47;;;;;;;;;;5066879;28;20473;-80
2021/11/02 17:58:10;;;;;;;10.10;5.00;;;;;;;;;;5067782;28;20481;-80
2021/11/02 18:00:38;;;;;;;7.07;3.57;;;;;;;;;;5062765;28;20521;-81
2021/11/02 18:03:07;;;;;;;6.80;3.33;;;;;;;;;;5080294;28;20449;-80
2021/11/02 18:05:36;;;;;;;7.40;3.27;;;;;;;;;;5068784;28;20492;-81
2021/11/02 18:08:05;;;;;;;6.57;3.60;;;;;;;;;;5077233;28;20458;-81
2021/11/02 18:10:33;;;;;;;14.63;3.47;;;;;;;;;;5066084;28;20526;-79
2021/11/02 18:13:05;;;;;;;7.80;3.80;;;;;;;;;;5068652;28;20460;-80
2021/11/02 18:15:33;;;;;;;8.33;4.20;;;;;;;;;;5069258;28;20475;-79
2021/11/02 18:18:00;;;;;;;9.47;4.50;;;;;;;;;;5063905;28;20487;-80
2021/11/02 18:20:28;;;;;;;7.70;4.37;;;;;;;;;;5069541;28;20728;-81
2021/11/02 18:22:56;;;;;;;9.70;4.10;;;;;;;;;;5072414;28;20458;-79
2021/11/02 18:25:24;;;;;;;8.03;4.40;;;;;;;;;;5075891;28;20505;-79
2021/11/02 18:27:52;;;;;;;8.20;4.60;;;;;;;;;;5064937;28;20457;-80
2021/11/02 18:30:20;;;;;;;11.73;5.70;;;;;;;;;;5071811;28;20475;-80
2021/11/02 18:32:49;;;;;;;8.67;4.73;;;;;;;;;;5077846;28;20539;-81
2021/11/02 18:35:16;;;;;;;9.77;5.10;;;;;;;;;;5067605;28;20544;-80
2021/11/02 18:37:44;;;;;;;9.77;5.77;;;;;;;;;;5063081;28;20457;-80
2021/11/02 18:40:14;;;;;;;9.00;4.97;;;;;;;;;;5063069;28;20472;-80
2021/11/02 18:42:41;;;;;;;8.10;4.13;;;;;;;;;;5068289;28;20544;-79
2021/11/02 18:45:09;;;;;;;9.90;5.10;;;;;;;;;;5068145;28;20480;-80
2021/11/02 18:47:36;;;;;;;8.53;4.87;;;;;;;;;;5070207;28;20475;-80
2021/11/02 18:50:04;;;;;;;10.50;5.20;;;;;;;;;;5072242;28;20556;-80
2021/11/02 18:52:31;;;;;;;8.10;5.30;;;;;;;;;;5082407;28;20997;-80
2021/11/02 18:54:58;;;;;;;9.17;5.27;;;;;;;;;;5068212;28;20459;-80
2021/11/02 18:57:27;;;;;;;13.50;5.90;;;;;;;;;;5066851;28;20482;-80
2021/11/02 18:59:54;;;;;;;9.93;5.70;;;;;;;;;;5066364;28;20471;-79
2021/11/02 19:02:21;;;;;;;9.40;5.30;;;;;;;;;;5067401;28;21178;-80
2021/11/02 19:04:49;;;;;;;9.67;5.30;;;;;;;;;;5076109;28;20484;-81
2021/11/02 19:07:18;;;;;;;9.60;5.43;;;;;;;;;;5061484;28;20464;-81
2021/11/02 19:09:45;;;;;;;9.47;5.43;;;;;;;;;;5059547;28;20465;-80
2021/11/02 19:12:15;;;;;;;11.30;5.60;;;;;;;;;;5070279;28;20508;-81
2021/11/02 19:14:49;;;;;;;10.13;5.53;;;;;;;;;;5072096;28;20458;-82
2021/11/02 19:17:19;;;;;;;10.97;6.00;;;;;;;;;;5079869;28;20479;-82
2021/11/02 19:19:46;;;;;;;11.53;6.30;;;;;;;;;;5085367;28;20567;-82
2021/11/02 19:22:14;;;;;;;9.93;6.57;;;;;;;;;;5069916;28;20461;-80
2021/11/02 19:24:41;;;;;;;10.27;5.33;;;;;;;;;;5072215;28;20498;-80
2021/11/02 19:27:08;;;;;;;10.40;6.87;;;;;;;;;;5075149;28;20505;-80